Time;durP1;ratioP1;P1;durP2;ratioP2;P2;SDS_P1;SDS_P2;PMS_P1;PMS_P2;Temp;Humidity;BMP_temperature;BMP_pressure;BME280_temperature;BME280_humidity;BME280_pressure;Samples;Min_cycle;Max_cycle;Signal;HPM_P1;HPM_P2
2022/11/09 00:01:01;;;;;;;74.82;29.23;;;;;;;11.07;90.59;100413.13;4428157;32;34360;-78
2022/11/09 00:03:29;;;;;;;75.28;29.27;;;;;;;11.09;90.47;100413.22;4425451;32;33924;-78
2022/11/09 00:05:58;;;;;;;63.90;25.42;;;;;;;11.08;90.88;100414.91;4433510;32;33878;-78
2022/11/09 00:08:27;;;;;;;67.03;26.90;;;;;;;11.15;90.45;100410.94;4431740;32;33919;-78
2022/11/09 00:11:01;;;;;;;76.07;27.92;;;;;;;10.86;91.73;100412.88;4427090;32;34492;-78
2022/11/09 00:13:28;;;;;;;77.63;26.77;;;;;;;11.15;90.04;100408.34;4422667;32;34073;-78
2022/11/09 00:16:01;;;;;;;65.78;26.70;;;;;;;10.86;92.28;100412.00;4423607;32;33539;-78
2022/11/09 00:18:28;;;;;;;70.25;27.15;;;;;;;11.13;90.28;100407.38;4431930;32;34101;-78
2022/11/09 00:20:56;;;;;;;63.80;26.27;;;;;;;11.04;90.53;100402.59;4436213;32;33437;-78
2022/11/09 00:23:24;;;;;;;68.12;26.95;;;;;;;11.26;89.33;100396.84;4425015;32;33949;-78
2022/11/09 00:25:51;;;;;;;69.43;26.45;;;;;;;10.99;91.17;100406.63;4414311;32;33287;-78
2022/11/09 00:28:19;;;;;;;73.90;27.80;;;;;;;11.04;91.06;100400.00;4430569;32;34294;-78
2022/11/09 00:30:46;;;;;;;66.85;27.67;;;;;;;10.77;92.09;100400.31;4426802;32;34323;-78
2022/11/09 00:33:15;;;;;;;66.28;26.77;;;;;;;10.78;92.79;100406.41;4435285;32;34694;-78
2022/11/09 00:35:43;;;;;;;68.85;26.20;;;;;;;10.76;92.67;100408.91;4431631;32;34613;-78
2022/11/09 00:38:12;;;;;;;68.30;26.48;;;;;;;11.11;90.67;100407.28;4431026;32;33987;-78
2022/11/09 00:40:39;;;;;;;67.32;26.42;;;;;;;10.97;91.59;100403.06;4431567;32;34029;-78
2022/11/09 00:43:07;;;;;;;68.97;25.33;;;;;;;10.97;91.75;100405.66;4411487;32;32030;-78
2022/11/09 00:45:34;;;;;;;75.32;28.17;;;;;;;11.32;89.04;100406.59;4433782;32;33941;-78
2022/11/09 00:48:03;;;;;;;64.85;25.88;;;;;;;11.06;91.12;100398.38;4423169;32;33789;-78
2022/11/09 00:50:30;;;;;;;71.25;26.60;;;;;;;10.95;91.83;100399.50;4428016;32;34903;-78
2022/11/09 00:52:58;;;;;;;79.68;27.65;;;;;;;10.60;94.00;100395.94;4423011;32;34676;-78
2022/11/09 00:55:26;;;;;;;62.72;25.45;;;;;;;10.80;92.83;100390.13;4434706;32;33863;-78
2022/11/09 00:57:54;;;;;;;71.00;27.92;;;;;;;10.84;92.55;100390.31;4425537;32;34118;-78
2022/11/09 01:00:23;;;;;;;62.35;24.67;;;;;;;11.21;90.97;100396.56;4425248;32;33865;-78
2022/11/09 01:02:52;;;;;;;78.47;27.23;;;;;;;11.20;89.67;100396.50;4433264;32;34682;-78
2022/11/09 01:05:19;;;;;;;65.57;25.25;;;;;;;11.20;89.97;100397.41;4436698;32;33849;-78
2022/11/09 01:07:48;;;;;;;68.10;25.35;;;;;;;10.84;91.87;100395.47;4432814;32;34482;-78
2022/11/09 01:10:16;;;;;;;73.78;27.17;;;;;;;10.78;92.67;100391.75;4403514;32;34239;-78
2022/11/09 01:12:45;;;;;;;70.87;25.75;;;;;;;10.73;92.88;100388.00;4426056;32;33871;-78
2022/11/09 01:15:14;;;;;;;72.90;25.50;;;;;;;10.82;92.65;100388.50;4425830;32;33598;-78
2022/11/09 01:17:41;;;;;;;67.30;24.80;;;;;;;10.71;93.20;100387.03;4434071;32;33153;-78
2022/11/09 01:20:10;;;;;;;64.97;24.77;;;;;;;11.21;90.35;100388.78;4425188;32;34252;-79
2022/11/09 01:22:37;;;;;;;83.05;25.88;;;;;;;10.79;92.37;100383.13;4437185;32;34610;-79
2022/11/09 01:25:05;;;;;;;74.75;26.48;;;;;;;10.78;92.68;100388.28;4411089;32;32178;-79
2022/11/09 01:27:33;;;;;;;64.65;23.87;;;;;;;10.63;93.28;100390.91;4421769;32;32477;-79
2022/11/09 01:30:00;;;;;;;82.07;26.20;;;;;;;10.97;91.26;100382.34;4432059;32;33855;-79
2022/11/09 01:32:31;;;;;;;62.45;25.00;;;;;;;10.70;92.56;100380.09;4416774;32;34068;-79
2022/11/09 01:34:58;;;;;;;64.78;24.15;;;;;;;10.61;94.19;100377.00;4426710;32;34694;-79
2022/11/09 01:37:29;;;;;;;69.95;25.60;;;;;;;11.00;91.98;100377.31;4433586;32;35653;-79
2022/11/09 01:39:56;;;;;;;78.72;25.08;;;;;;;10.54;93.75;100369.69;4437669;32;33623;-79
2022/11/09 01:42:24;;;;;;;58.45;23.73;;;;;;;10.71;93.21;100373.19;4434579;32;33629;-79
2022/11/09 01:45:17;;;;;;;58.83;24.12;;;;;;;11.08;91.95;100376.00;4406670;32;33963;-80
2022/11/09 01:47:47;;;;;;;66.47;24.10;;;;;;;10.92;91.75;100363.06;4429741;32;34112;-79
2022/11/09 01:50:18;;;;;;;85.05;23.25;;;;;;;10.71;93.15;100363.72;4423010;32;36268;-79
2022/11/09 01:52:47;;;;;;;74.07;23.27;;;;;;;10.84;91.94;100361.78;4434559;32;33757;-79
2022/11/09 01:55:18;;;;;;;71.82;23.98;;;;;;;10.60;93.53;100364.84;4437002;32;33809;-79
2022/11/09 01:57:59;;;;;;;62.10;23.12;;;;;;;10.53;93.26;100365.34;4413093;32;33929;-79
2022/11/09 02:00:27;;;;;;;68.15;21.92;;;;;;;10.63;93.42;100357.25;4415286;32;33419;-79
2022/11/09 02:02:58;;;;;;;58.87;21.62;;;;;;;10.38;94.83;100358.50;4418873;32;34151;-79
2022/11/09 02:05:28;;;;;;;57.95;21.48;;;;;;;10.50;93.73;100357.38;4424587;32;34567;-78
2022/11/09 02:07:57;;;;;;;65.82;22.20;;;;;;;10.64;92.72;100351.22;4402478;32;32351;-78
2022/11/09 02:10:32;;;;;;;54.50;22.10;;;;;;;10.86;91.86;100352.41;4430748;32;34182;-78
2022/11/09 02:13:01;;;;;;;65.95;21.45;;;;;;;10.49;93.14;100346.16;4385952;32;31815;-78
2022/11/09 02:15:35;;;;;;;56.83;21.05;;;;;;;10.34;94.41;100356.56;4421703;32;33890;-78
2022/11/09 02:18:10;;;;;;;66.90;21.67;;;;;;;10.36;95.12;100352.34;4428960;32;34043;-78
2022/11/09 02:20:51;;;;;;;64.10;20.88;;;;;;;10.61;94.20;100345.91;4430203;32;34042;-79
2022/11/09 02:23:23;;;;;;;52.72;20.08;;;;;;;10.41;93.93;100353.50;4410867;32;32359;-78
2022/11/09 02:26:00;;;;;;;54.50;20.02;;;;;;;10.20;95.13;100352.31;4438577;32;34499;-78
2022/11/09 02:28:29;;;;;;;60.70;20.08;;;;;;;10.32;94.80;100347.81;4423710;32;34906;-79
2022/11/09 02:30:58;;;;;;;69.97;21.92;;;;;;;10.30;94.11;100339.06;4436493;32;34364;-79
2022/11/09 02:33:26;;;;;;;62.33;19.08;;;;;;;10.22;94.57;100335.16;4423172;32;34776;-79
2022/11/09 02:35:54;;;;;;;55.35;19.42;;;;;;;10.27;94.30;100346.63;4427467;32;32884;-79
2022/11/09 02:38:21;;;;;;;64.45;19.87;;;;;;;10.10;95.94;100343.13;4437693;32;33433;-79
2022/11/09 02:40:50;;;;;;;59.55;20.95;;;;;;;10.08;95.33;100343.84;4430648;32;34333;-79
2022/11/09 02:43:18;;;;;;;48.47;19.67;;;;;;;10.44;93.05;100345.00;4437249;32;33496;-78
2022/11/09 02:45:47;;;;;;;49.63;20.02;;;;;;;10.37;93.49;100345.47;4427761;32;34106;-79
2022/11/09 02:48:14;;;;;;;61.00;19.85;;;;;;;9.95;95.72;100340.59;4431894;32;34834;-78
2022/11/09 02:50:41;;;;;;;59.95;19.67;;;;;;;10.10;95.04;100337.06;4438151;32;34263;-79
2022/11/09 02:53:09;;;;;;;46.15;19.05;;;;;;;10.10;95.41;100335.37;4429519;32;34500;-78
2022/11/09 02:55:37;;;;;;;54.35;19.37;;;;;;;9.63;97.99;100318.94;4430749;32;33796;-78
2022/11/09 02:58:05;;;;;;;49.00;18.67;;;;;;;9.87;96.21;100315.97;4432615;32;33901;-78
2022/11/09 03:00:34;;;;;;;55.75;18.45;;;;;;;10.37;94.38;100327.34;4432478;32;33717;-78
2022/11/09 03:03:02;;;;;;;49.55;20.12;;;;;;;9.83;96.44;100326.94;4425839;32;34446;-78
2022/11/09 03:05:29;;;;;;;51.97;19.25;;;;;;;10.41;93.42;100337.97;4408691;32;34791;-78
2022/11/09 03:08:01;;;;;;;51.22;18.62;;;;;;;10.37;93.54;100336.03;4436894;32;34187;-78
2022/11/09 03:10:29;;;;;;;54.58;19.12;;;;;;;10.45;92.62;100344.19;4429787;32;34492;-78
2022/11/09 03:12:56;;;;;;;43.05;17.23;;;;;;;10.59;91.24;100351.00;4433944;32;33862;-78
2022/11/09 03:15:24;;;;;;;46.05;18.80;;;;;;;10.39;92.79;100349.94;4424650;32;33605;-78
2022/11/09 03:17:52;;;;;;;57.10;18.73;;;;;;;10.20;93.59;100350.59;4432858;32;34865;-78
2022/11/09 03:20:20;;;;;;;53.13;20.17;;;;;;;10.09;93.71;100348.22;4429676;32;33776;-78
2022/11/09 03:22:48;;;;;;;54.63;18.77;;;;;;;10.06;94.49;100348.03;4433236;32;33914;-78
2022/11/09 03:25:16;;;;;;;75.62;19.52;;;;;;;10.10;94.33;100344.81;4431516;32;33978;-78
2022/11/09 03:27:44;;;;;;;49.72;19.17;;;;;;;10.26;93.13;100346.53;4422683;32;33982;-78
2022/11/09 03:30:12;;;;;;;61.37;18.75;;;;;;;10.01;94.26;100346.09;4417442;32;34501;-78
2022/11/09 03:32:40;;;;;;;56.00;19.25;;;;;;;10.04;94.65;100341.09;4437949;32;34121;-78
2022/11/09 03:35:08;;;;;;;55.03;19.40;;;;;;;10.49;92.62;100353.00;4432905;32;33750;-78
2022/11/09 03:37:36;;;;;;;46.17;17.87;;;;;;;9.90;94.92;100352.37;4425489;32;34190;-78
2022/11/09 03:40:04;;;;;;;52.17;17.50;;;;;;;10.19;93.91;100351.38;4432648;32;33791;-78
2022/11/09 03:42:31;;;;;;;48.45;18.42;;;;;;;10.24;93.52;100357.72;4432198;32;34396;-78
2022/11/09 03:44:59;;;;;;;59.00;18.90;;;;;;;10.32;92.60;100357.28;4426119;32;34623;-78
2022/11/09 03:47:26;;;;;;;49.58;18.77;;;;;;;10.19;93.78;100346.22;4437989;32;34169;-78
2022/11/09 03:49:54;;;;;;;43.13;16.95;;;;;;;10.35;92.97;100341.91;4433532;32;33542;-78
2022/11/09 03:52:22;;;;;;;52.17;17.87;;;;;;;10.29;92.44;100347.59;4432110;32;33832;-78
2022/11/09 03:54:49;;;;;;;53.67;18.42;;;;;;;10.20;93.35;100341.94;4436435;32;33485;-78
2022/11/09 03:57:17;;;;;;;48.58;18.73;;;;;;;10.21;92.80;100344.59;4436265;32;34006;-78
2022/11/09 03:59:44;;;;;;;48.85;17.62;;;;;;;10.08;93.51;100336.06;4436929;32;34236;-78
2022/11/09 04:02:12;;;;;;;60.12;18.65;;;;;;;10.12;93.91;100345.78;4421510;32;33858;-78
2022/11/09 04:04:40;;;;;;;46.67;17.92;;;;;;;9.86;94.93;100339.19;4434558;32;34725;-78
2022/11/09 04:07:09;;;;;;;48.70;19.27;;;;;;;10.26;92.99;100337.09;4433349;32;34127;-78
2022/11/09 04:09:37;;;;;;;54.22;19.90;;;;;;;10.29;93.15;100342.44;4430041;32;34492;-78
2022/11/09 04:12:04;;;;;;;61.00;20.33;;;;;;;10.07;93.69;100336.91;4434818;32;34641;-79
2022/11/09 04:14:32;;;;;;;67.95;19.37;;;;;;;10.26;92.08;100342.28;4435383;32;34413;-79
2022/11/09 04:16:59;;;;;;;51.15;17.65;;;;;;;10.31;92.15;100340.84;4436362;32;33610;-79
2022/11/09 04:19:27;;;;;;;60.30;19.40;;;;;;;10.08;93.91;100330.91;4424442;32;34457;-79
2022/11/09 04:21:55;;;;;;;51.22;18.90;;;;;;;10.17;93.88;100336.59;4432094;32;33847;-79
2022/11/09 04:24:22;;;;;;;53.20;18.77;;;;;;;10.00;93.44;100333.06;4429960;32;34402;-78
2022/11/09 04:26:50;;;;;;;46.55;18.10;;;;;;;10.11;93.32;100333.66;4412584;32;34065;-79
2022/11/09 04:29:17;;;;;;;53.58;19.02;;;;;;;9.96;94.54;100337.19;4436167;32;33770;-78
2022/11/09 04:31:47;;;;;;;52.85;18.12;;;;;;;9.90;94.90;100334.25;4419483;32;34627;-78
2022/11/09 04:34:16;;;;;;;50.45;18.62;;;;;;;9.82;94.91;100332.94;4403168;32;35324;-78
2022/11/09 04:36:43;;;;;;;51.47;18.60;;;;;;;10.10;93.33;100332.78;4428217;32;33811;-78
2022/11/09 04:39:11;;;;;;;54.78;18.92;;;;;;;10.28;92.67;100335.47;4434879;32;34244;-79
2022/11/09 04:41:39;;;;;;;50.50;18.23;;;;;;;10.10;93.08;100334.47;4410663;32;33755;-78
2022/11/09 04:44:07;;;;;;;53.97;19.42;;;;;;;9.80;94.75;100325.09;4430713;32;33980;-78
2022/11/09 04:46:34;;;;;;;47.83;18.52;;;;;;;9.65;95.91;100330.28;4429882;32;34569;-79
2022/11/09 04:49:02;;;;;;;46.10;17.37;;;;;;;9.98;93.97;100330.38;4435477;32;33734;-78
2022/11/09 04:51:29;;;;;;;53.87;19.05;;;;;;;9.88;94.79;100333.28;4415439;32;33783;-78
2022/11/09 04:53:57;;;;;;;50.58;17.35;;;;;;;9.94;94.15;100337.91;4431366;32;34699;-78
2022/11/09 04:56:24;;;;;;;49.88;17.05;;;;;;;9.78;95.02;100330.97;4431786;32;34012;-79
2022/11/09 04:58:52;;;;;;;49.35;18.10;;;;;;;9.83;95.21;100320.09;4437529;32;33588;-78
2022/11/09 05:01:19;;;;;;;65.22;18.58;;;;;;;9.67;95.61;100329.47;4429839;32;34391;-79
2022/11/09 05:03:47;;;;;;;53.70;19.17;;;;;;;9.83;95.35;100325.28;4418377;32;32174;-77
2022/11/09 05:06:30;;;;;;;50.05;18.00;;;;;;;9.94;94.40;100333.59;4436918;32;34136;-78
2022/11/09 05:09:06;;;;;;;49.70;17.02;;;;;;;10.01;93.75;100321.91;4430448;32;33567;-79
2022/11/09 05:11:34;;;;;;;65.50;19.73;;;;;;;10.13;93.90;100329.47;4428027;32;34617;-78
2022/11/09 05:14:03;;;;;;;49.35;16.65;;;;;;;10.40;91.84;100336.16;4426403;32;34609;-78
2022/11/09 05:16:30;;;;;;;59.28;18.27;;;;;;;9.86;93.64;100324.53;4426693;32;33565;-78
2022/11/09 05:18:58;;;;;;;48.75;16.30;;;;;;;9.70;95.36;100324.50;4431386;32;33472;-78
2022/11/09 05:21:26;;;;;;;50.25;18.23;;;;;;;9.94;94.50;100318.09;4422944;32;33567;-78
2022/11/09 05:23:59;;;;;;;55.65;18.40;;;;;;;9.46;97.19;100301.59;4430095;32;33725;-79
2022/11/09 05:26:32;;;;;;;57.23;18.03;;;;;;;9.47;97.75;100305.97;4428143;32;34072;-78
2022/11/09 05:29:02;;;;;;;76.15;19.08;;;;;;;9.69;96.42;100321.00;4427314;32;34437;-79
2022/11/09 05:31:30;;;;;;;60.03;19.73;;;;;;;9.90;95.12;100325.59;4416488;32;34191;-78
2022/11/09 05:33:58;;;;;;;61.95;19.48;;;;;;;10.15;93.01;100327.84;4415297;32;33245;-79
2022/11/09 05:36:27;;;;;;;54.60;19.42;;;;;;;10.24;92.23;100338.72;4403850;32;35248;-79
2022/11/09 05:38:55;;;;;;;54.58;18.73;;;;;;;10.02;94.04;100337.53;4426810;32;33667;-79
2022/11/09 05:41:23;;;;;;;51.85;18.75;;;;;;;9.89;94.18;100336.75;4433445;32;33851;-79
2022/11/09 05:43:51;;;;;;;51.65;17.70;;;;;;;9.79;95.41;100332.75;4423490;32;33649;-79
2022/11/09 05:46:18;;;;;;;44.33;17.95;;;;;;;10.06;93.35;100337.69;4427739;32;34181;-79
2022/11/09 05:48:46;;;;;;;55.08;17.87;;;;;;;9.75;95.33;100330.81;4414209;32;33471;-79
2022/11/09 05:51:14;;;;;;;68.72;18.70;;;;;;;9.72;95.64;100326.34;4416077;32;33950;-78
2022/11/09 05:53:42;;;;;;;59.50;17.85;;;;;;;10.17;93.69;100341.75;4429357;32;33873;-78
2022/11/09 05:56:13;;;;;;;76.40;18.45;;;;;;;10.21;93.19;100344.59;4414053;32;33912;-78
2022/11/09 05:58:41;;;;;;;44.28;17.40;;;;;;;10.41;92.62;100343.16;4426615;32;33879;-79
2022/11/09 06:01:14;;;;;;;42.03;18.48;;;;;;;10.23;93.40;100352.44;4426571;32;33786;-79
2022/11/09 06:03:43;;;;;;;52.00;18.10;;;;;;;10.18;91.89;100348.75;4428777;32;34198;-79
2022/11/09 06:06:13;;;;;;;52.67;17.48;;;;;;;9.72;95.44;100341.00;4431477;32;35025;-79
2022/11/09 06:08:41;;;;;;;48.42;17.85;;;;;;;10.01;93.67;100343.50;4426500;32;34257;-79
2022/11/09 06:11:10;;;;;;;58.92;18.87;;;;;;;10.10;94.08;100344.81;4432002;32;34691;-79
2022/11/09 06:13:40;;;;;;;51.35;18.48;;;;;;;10.16;93.37;100343.47;4415806;32;33689;-79
2022/11/09 06:16:08;;;;;;;49.30;18.75;;;;;;;9.75;96.21;100341.16;4433226;32;35049;-79
2022/11/09 06:18:37;;;;;;;53.40;18.02;;;;;;;9.80;95.16;100342.31;4432427;32;33726;-79
2022/11/09 06:21:05;;;;;;;54.75;19.00;;;;;;;9.72;95.12;100349.63;4438221;32;34530;-79
2022/11/09 06:23:33;;;;;;;47.65;18.23;;;;;;;9.89;94.96;100342.84;4437241;32;33907;-79
2022/11/09 06:26:08;;;;;;;58.10;19.27;;;;;;;9.55;96.46;100348.66;4432962;32;34451;-79
2022/11/09 06:28:36;;;;;;;53.95;17.75;;;;;;;9.77;95.53;100352.47;4421925;32;33129;-79
2022/11/09 06:31:06;;;;;;;43.10;16.45;;;;;;;9.80;95.49;100355.25;4427065;32;33940;-79
2022/11/09 06:33:35;;;;;;;48.92;18.25;;;;;;;9.82;95.03;100356.22;4422475;32;33302;-80
2022/11/09 06:36:02;;;;;;;47.88;17.75;;;;;;;9.51;96.69;100358.75;4421200;32;34471;-80
2022/11/09 06:38:31;;;;;;;54.10;18.27;;;;;;;9.68;96.34;100362.28;4430501;32;34121;-80
2022/11/09 06:40:59;;;;;;;48.70;18.23;;;;;;;9.73;95.49;100347.94;4420324;32;34713;-80
2022/11/09 06:43:27;;;;;;;49.83;17.52;;;;;;;9.53;96.42;100355.44;4432519;32;33694;-80
2022/11/09 06:45:55;;;;;;;52.33;17.25;;;;;;;9.79;94.59;100345.69;4433870;32;34014;-80
2022/11/09 06:48:23;;;;;;;55.67;17.40;;;;;;;9.99;93.91;100352.00;4429727;32;32557;-80
2022/11/09 06:50:51;;;;;;;49.22;17.73;;;;;;;9.97;93.21;100346.72;4416148;32;35080;-81
2022/11/09 06:53:19;;;;;;;47.47;18.20;;;;;;;10.04;92.78;100351.47;4418736;32;33971;-81
2022/11/09 06:55:47;;;;;;;42.60;17.27;;;;;;;10.07;92.32;100360.19;4428976;32;35016;-81
2022/11/09 06:58:18;;;;;;;49.85;17.95;;;;;;;9.89;93.19;100355.78;4432559;32;35006;-81
2022/11/09 07:00:46;;;;;;;47.90;17.58;;;;;;;10.50;89.62;100362.56;4392964;32;31738;-80
2022/11/09 07:03:15;;;;;;;45.80;16.95;;;;;;;10.36;89.78;100364.41;4429780;32;33931;-80
2022/11/09 07:05:43;;;;;;;54.90;18.30;;;;;;;10.00;92.50;100354.66;4429282;32;33215;-80
2022/11/09 07:08:12;;;;;;;50.53;17.37;;;;;;;9.95;92.33;100355.22;4419390;32;33518;-80
2022/11/09 07:10:40;;;;;;;50.45;18.58;;;;;;;9.62;94.66;100361.16;4433433;32;33583;-79
2022/11/09 07:13:08;;;;;;;52.90;16.73;;;;;;;9.79;94.77;100358.63;4440401;32;33961;-80
2022/11/09 07:15:37;;;;;;;42.70;16.45;;;;;;;9.72;93.94;100351.34;4434668;32;33764;-81
2022/11/09 07:18:06;;;;;;;45.53;17.25;;;;;;;9.52;94.69;100353.69;4438490;32;33485;-79
2022/11/09 07:20:34;;;;;;;54.05;17.50;;;;;;;9.68;93.46;100357.12;4426379;32;33736;-79
2022/11/09 07:23:02;;;;;;;48.83;16.48;;;;;;;10.38;90.13;100363.69;4440716;32;33631;-80
2022/11/09 07:25:30;;;;;;;41.88;16.85;;;;;;;10.14;91.41;100362.28;4434360;32;34653;-79
2022/11/09 07:28:07;;;;;;;41.70;16.45;;;;;;;9.96;91.29;100355.28;4428123;32;33287;-80
2022/11/09 07:30:38;;;;;;;52.05;17.33;;;;;;;9.55;93.58;100364.19;4436649;32;34872;-80
2022/11/09 07:33:14;;;;;;;42.13;16.40;;;;;;;9.94;92.94;100359.50;4430959;32;33928;-80
2022/11/09 07:35:41;;;;;;;48.20;16.67;;;;;;;10.38;90.74;100363.69;4425634;32;33941;-80
2022/11/09 07:38:09;;;;;;;60.10;18.80;;;;;;;9.87;92.08;100359.97;4437429;32;34308;-79
2022/11/09 07:40:37;;;;;;;42.70;17.92;;;;;;;9.60;94.18;100362.75;4422817;32;32645;-79
2022/11/09 07:43:06;;;;;;;44.55;17.58;;;;;;;9.83;92.61;100356.31;4411113;32;34082;-80
2022/11/09 07:45:34;;;;;;;39.03;15.77;;;;;;;9.68;93.07;100359.69;4437627;32;33188;-80
2022/11/09 07:48:05;;;;;;;44.33;17.35;;;;;;;9.94;92.39;100364.66;4434927;32;33417;-79
2022/11/09 07:50:34;;;;;;;45.25;16.50;;;;;;;9.63;93.41;100368.09;4428952;32;33579;-79
2022/11/09 07:53:02;;;;;;;45.38;17.42;;;;;;;9.65;94.50;100361.31;4431426;32;33830;-79
2022/11/09 07:55:30;;;;;;;50.12;18.50;;;;;;;9.86;92.87;100371.12;4415371;32;34815;-80
2022/11/09 07:57:59;;;;;;;46.22;18.17;;;;;;;10.29;91.39;100365.72;4414584;32;33738;-79
2022/11/09 08:00:28;;;;;;;41.37;16.85;;;;;;;10.31;89.75;100368.44;4428722;32;33913;-80
2022/11/09 08:02:56;;;;;;;43.60;17.25;;;;;;;10.18;90.81;100369.44;4433531;32;34619;-81
2022/11/09 08:05:24;;;;;;;46.92;17.60;;;;;;;10.28;90.05;100366.56;4423905;32;34098;-81
2022/11/09 08:07:56;;;;;;;46.70;17.35;;;;;;;10.32;90.54;100368.53;4437793;32;35223;-80
2022/11/09 08:10:25;;;;;;;44.67;17.17;;;;;;;10.11;91.62;100362.16;4434658;32;34064;-80
2022/11/09 08:12:57;;;;;;;44.78;18.52;;;;;;;10.49;90.01;100360.78;4432347;32;34665;-80
2022/11/09 08:15:26;;;;;;;45.03;17.12;;;;;;;10.36;90.89;100361.81;4426826;32;33852;-80
2022/11/09 08:17:57;;;;;;;48.97;17.67;;;;;;;9.76;93.31;100348.13;4430706;32;33867;-80
2022/11/09 08:20:25;;;;;;;46.55;18.17;;;;;;;9.89;93.27;100345.41;4430871;32;34382;-80
2022/11/09 08:22:53;;;;;;;42.58;17.58;;;;;;;10.11;92.52;100357.84;4422449;32;33343;-80
2022/11/09 08:25:27;;;;;;;42.00;16.98;;;;;;;10.01;93.16;100351.28;4417316;32;33703;-80
2022/11/09 08:27:55;;;;;;;50.20;19.58;;;;;;;10.45;91.31;100348.47;4437083;32;34404;-80
2022/11/09 08:30:24;;;;;;;44.05;18.20;;;;;;;10.01;93.05;100351.28;4433966;32;33993;-80
2022/11/09 08:32:52;;;;;;;52.70;18.62;;;;;;;10.54;90.97;100356.75;4435868;32;34025;-80
2022/11/09 08:35:21;;;;;;;45.12;18.62;;;;;;;10.61;90.71;100349.37;4435479;32;33942;-80
2022/11/09 08:37:49;;;;;;;60.00;19.37;;;;;;;10.58;90.49;100361.28;4436866;32;33679;-80
2022/11/09 08:40:26;;;;;;;49.95;20.35;;;;;;;10.43;90.47;100351.00;4422004;32;33955;-80
2022/11/09 08:42:54;;;;;;;46.88;18.48;;;;;;;10.25;91.91;100361.19;4427398;32;34529;-80
2022/11/09 08:45:22;;;;;;;50.28;20.35;;;;;;;10.50;90.78;100344.44;4435098;32;35332;-80
2022/11/09 08:50:57;;;;;;;55.05;20.10;;;;;;;10.39;92.03;100355.13;4261942;27;35094;-79
2022/11/09 08:53:26;;;;;;;51.88;20.15;;;;;;;10.21;92.40;100356.66;4444286;32;32796;-80
2022/11/09 08:55:54;;;;;;;48.72;19.87;;;;;;;10.13;93.64;100347.59;4443547;32;35007;-80
2022/11/09 08:58:22;;;;;;;55.38;22.77;;;;;;;10.10;93.68;100344.81;4451875;32;33713;-80
2022/11/09 09:00:50;;;;;;;57.50;21.90;;;;;;;10.55;91.65;100354.25;4444895;32;34221;-80
2022/11/09 09:03:17;;;;;;;55.20;22.00;;;;;;;10.34;92.28;100351.38;4448118;32;34732;-80
2022/11/09 09:05:45;;;;;;;54.10;21.17;;;;;;;10.30;92.63;100353.69;4451755;32;34784;-80
2022/11/09 09:08:14;;;;;;;52.28;21.30;;;;;;;10.38;93.48;100355.03;4449564;32;33517;-80
2022/11/09 09:10:42;;;;;;;50.33;21.45;;;;;;;10.67;91.71;100356.59;4450622;32;34519;-80
2022/11/09 09:13:09;;;;;;;51.35;20.80;;;;;;;10.66;91.15;100353.91;4453949;32;33757;-80
2022/11/09 09:15:37;;;;;;;45.80;20.75;;;;;;;10.53;92.10;100354.97;4460332;32;34283;-80
2022/11/09 09:18:04;;;;;;;52.22;20.40;;;;;;;10.53;92.32;100352.37;4453418;32;33585;-80
2022/11/09 09:20:32;;;;;;;58.40;22.33;;;;;;;10.86;91.19;100358.47;4438700;32;32501;-80
2022/11/09 09:23:00;;;;;;;62.65;20.98;;;;;;;10.72;91.61;100351.63;4439095;32;33904;-80
2022/11/09 09:25:27;;;;;;;49.80;22.45;;;;;;;10.74;91.69;100358.72;4431784;32;34122;-80
2022/11/09 09:27:55;;;;;;;49.22;21.05;;;;;;;10.73;92.38;100346.53;4447222;32;33559;-80
2022/11/09 09:30:23;;;;;;;61.60;22.08;;;;;;;10.75;91.59;100347.50;4442045;32;32944;-80
2022/11/09 09:32:50;;;;;;;53.30;21.73;;;;;;;10.49;92.67;100350.41;4455790;32;34135;-80
2022/11/09 09:35:18;;;;;;;55.47;20.80;;;;;;;10.68;91.86;100358.38;4463367;32;33954;-80
2022/11/09 09:37:46;;;;;;;54.25;21.55;;;;;;;10.90;91.31;100351.75;4441201;32;32838;-80
2022/11/09 09:40:41;;;;;;;55.65;21.17;;;;;;;10.57;92.87;100354.34;4452408;32;33570;-80
2022/11/09 09:43:18;;;;;;;;;;;;;;;10.82;92.93;100354.81;4450717;32;33431;-80
2022/11/09 09:45:50;;;;;;;51.97;22.37;;;;;;;10.60;93.53;100345.03;4446033;32;34310;-80
2022/11/09 09:48:25;;;;;;;55.10;22.08;;;;;;;10.71;93.60;100343.00;4442684;32;33668;-80
2022/11/09 09:50:58;;;;;;;55.10;22.48;;;;;;;10.89;92.08;100345.63;4444558;32;34033;-80
2022/11/09 09:53:31;;;;;;;61.15;23.45;;;;;;;10.96;91.11;100339.09;4438822;32;34341;-80
2022/11/09 09:56:03;;;;;;;58.92;24.05;;;;;;;10.91;92.43;100330.19;4442353;32;34838;-80
2022/11/09 09:58:33;;;;;;;62.38;24.60;;;;;;;10.77;93.44;100327.75;4427371;32;33129;-81
2022/11/09 10:01:11;;;;;;;59.00;24.00;;;;;;;10.77;93.29;100325.16;4443996;32;33857;-80
2022/11/09 10:03:39;;;;;;;55.75;23.48;;;;;;;11.07;91.19;100327.56;4426985;32;34606;-81
2022/11/09 10:06:36;;;;;;;55.75;23.48;;;;;;;11.24;90.19;100324.94;4453217;32;33942;-81
2022/11/09 10:09:07;;;;;;;66.35;25.80;;;;;;;11.25;90.40;100317.25;4423672;32;33691;-80
2022/11/09 10:11:50;;;;;;;66.53;25.23;;;;;;;11.49;90.16;100314.06;4461598;32;33395;-80
2022/11/09 10:14:27;;;;;;;55.92;24.52;;;;;;;11.02;91.96;100310.88;4452723;32;33552;-80
2022/11/09 10:17:00;;;;;;;61.67;24.58;;;;;;;11.11;91.29;100303.59;4454886;32;33315;-80
2022/11/09 10:20:18;;;;;;;62.25;26.25;;;;;;;10.69;93.85;100313.50;4462605;32;34216;-80
2022/11/09 10:23:14;;;;;;;61.03;25.20;;;;;;;10.87;92.96;100313.56;4434022;32;32830;-79
2022/11/09 10:25:44;;;;;;;62.10;25.37;;;;;;;10.68;93.99;100311.75;4460271;32;33555;-80
2022/11/09 10:28:38;;;;;;;61.37;25.73;;;;;;;11.27;91.04;100312.13;4451369;32;34002;-80
2022/11/09 10:31:30;;;;;;;60.90;24.87;;;;;;;11.21;90.62;100311.00;4454049;32;33515;-80
2022/11/09 10:34:07;;;;;;;62.28;25.83;;;;;;;11.43;89.69;100309.47;4443776;32;33286;-80
2022/11/09 10:36:47;;;;;;;63.42;27.20;;;;;;;10.91;92.33;100305.13;4428306;32;34059;-79
2022/11/09 10:39:15;;;;;;;59.05;25.15;;;;;;;11.11;92.44;100313.97;4450674;32;34730;-80
2022/11/09 10:42:00;;;;;;;57.85;24.63;;;;;;;11.32;90.65;100303.78;4453256;32;33990;-80
2022/11/09 10:44:46;;;;;;;58.87;25.52;;;;;;;11.45;89.92;100294.87;4454880;32;33748;-80
2022/11/09 10:47:49;;;;;;;65.20;26.73;;;;;;;11.33;91.02;100299.47;4440159;32;34409;-79
2022/11/09 10:50:50;;;;;;;59.75;26.67;;;;;;;11.42;90.15;100284.37;4444423;32;34118;-80
2022/11/09 10:53:36;;;;;;;63.10;27.65;;;;;;;11.12;91.66;100292.38;4451668;32;34071;-80
2022/11/09 10:56:22;;;;;;;62.45;26.33;;;;;;;11.31;91.94;100290.72;4440512;32;33670;-80
2022/11/09 10:59:29;;;;;;;62.75;26.02;;;;;;;11.43;90.52;100283.53;4452441;32;34586;-80
2022/11/09 11:02:25;;;;;;;62.95;26.60;;;;;;;11.60;89.51;100279.16;4451899;32;34011;-80
2022/11/09 11:05:17;;;;;;;57.95;26.58;;;;;;;11.55;89.46;100276.38;4452679;32;33191;-80
2022/11/09 11:08:22;;;;;;;65.30;26.48;;;;;;;11.38;91.06;100269.47;4452819;32;34868;-80
2022/11/09 11:11:19;;;;;;;67.80;27.40;;;;;;;11.25;91.90;100269.69;4432403;32;34618;-80
2022/11/09 11:14:31;;;;;;;65.40;28.12;;;;;;;11.62;89.54;100277.53;4429222;32;34073;-79
2022/11/09 11:17:25;;;;;;;67.97;27.40;;;;;;;11.59;89.29;100273.09;4432145;32;33882;-79
2022/11/09 11:20:35;;;;;;;68.40;27.85;;;;;;;11.72;88.95;100273.69;4439895;32;34350;-79
2022/11/09 11:23:24;;;;;;;64.50;28.62;;;;;;;11.15;92.33;100258.84;4430419;32;32706;-80
2022/11/09 11:26:22;;;;;;;67.12;28.42;;;;;;;11.35;91.12;100266.72;4451374;32;33803;-79
2022/11/09 11:29:32;;;;;;;63.80;27.85;;;;;;;11.79;89.02;100268.84;4443676;32;34559;-80
2022/11/09 11:32:19;;;;;;;67.30;28.30;;;;;;;11.49;90.39;100265.69;4449345;32;33821;-80
2022/11/09 11:35:40;;;;;;;62.78;27.15;;;;;;;11.36;90.94;100263.31;4442490;32;34714;-79